createdAt,value
2018-08-12T00:02:12.565Z,1.17
2018-08-12T00:04:41.235Z,1.40
2018-08-12T00:07:09.908Z,2.07
2018-08-12T00:09:38.598Z,1.90
2018-08-12T00:12:07.371Z,1.60
2018-08-12T00:14:36.052Z,1.70
2018-08-12T00:17:04.786Z,1.90
2018-08-12T00:19:33.447Z,1.77
2018-08-12T00:22:02.285Z,1.77
2018-08-12T00:24:31.007Z,2.10
2018-08-12T00:26:59.747Z,2.23
2018-08-12T00:29:28.435Z,2.07
2018-08-12T00:31:57.111Z,2.07
2018-08-12T00:34:25.837Z,2.33
2018-08-12T00:36:54.539Z,1.90
2018-08-12T00:39:23.243Z,1.90
2018-08-12T00:41:51.896Z,1.80
2018-08-12T00:44:20.570Z,1.77
2018-08-12T00:46:49.308Z,1.60
2018-08-12T00:49:18.031Z,2.00
2018-08-12T00:51:47.163Z,1.67
2018-08-12T00:54:15.854Z,1.40
2018-08-12T00:56:44.504Z,1.47
2018-08-12T00:59:13.192Z,1.30
2018-08-12T01:01:41.895Z,1.60
2018-08-12T01:04:10.585Z,1.40
2018-08-12T01:06:39.915Z,1.50
2018-08-12T01:09:11.696Z,1.60
2018-08-12T01:11:40.371Z,1.30
2018-08-12T01:14:09.122Z,1.20
2018-08-12T01:16:37.909Z,1.00
2018-08-12T01:19:06.644Z,1.03
2018-08-12T01:21:35.346Z,1.17
2018-08-12T01:24:04.219Z,1.20
2018-08-12T01:26:32.928Z,1.17
2018-08-12T01:29:01.783Z,1.30
2018-08-12T01:31:30.460Z,1.30
2018-08-12T01:33:59.155Z,1.43
2018-08-12T01:36:27.820Z,1.40
2018-08-12T01:38:56.531Z,1.50
2018-08-12T01:41:25.209Z,1.67
2018-08-12T01:43:53.916Z,1.60
2018-08-12T01:46:23.055Z,1.40
2018-08-12T01:48:51.932Z,1.50
2018-08-12T01:51:20.709Z,1.40
2018-08-12T01:53:49.380Z,1.37
2018-08-12T01:56:18.034Z,1.50
2018-08-12T01:58:46.683Z,2.17
2018-08-12T02:01:15.443Z,1.60
2018-08-12T02:03:44.120Z,1.57
2018-08-12T02:06:12.800Z,1.90
2018-08-12T02:08:41.427Z,1.60
2018-08-12T02:11:10.161Z,1.70
2018-08-12T02:13:38.922Z,2.03
2018-08-12T02:16:07.556Z,2.03
2018-08-12T02:18:36.244Z,2.20
2018-08-12T02:21:04.907Z,2.03
2018-08-12T02:23:33.558Z,1.83
2018-08-12T02:26:03.280Z,1.70
2018-08-12T02:28:31.907Z,1.60
2018-08-12T02:31:00.583Z,1.60
2018-08-12T02:33:29.249Z,1.57
2018-08-12T02:35:58.565Z,1.60
2018-08-12T02:38:27.257Z,1.70
2018-08-12T02:40:55.937Z,1.47
2018-08-12T02:43:24.644Z,1.50
2018-08-12T02:45:53.337Z,1.30
2018-08-12T02:48:22.084Z,1.20
2018-08-12T02:50:50.755Z,1.13
2018-08-12T02:53:19.463Z,1.00
2018-08-12T02:55:52.055Z,1.10
2018-08-12T02:58:21.224Z,1.10
2018-08-12T03:00:49.957Z,0.93
2018-08-12T03:03:18.629Z,1.00
2018-08-12T03:05:47.351Z,1.07
2018-08-12T03:08:16.049Z,0.80
2018-08-12T03:10:44.740Z,0.80
2018-08-12T03:13:13.426Z,0.70
2018-08-12T03:15:42.086Z,0.90
2018-08-12T03:18:10.739Z,0.60
2018-08-12T03:20:39.457Z,0.70
2018-08-12T03:23:08.184Z,0.73
2018-08-12T03:25:36.841Z,0.60
2018-08-12T03:28:05.586Z,0.60
2018-08-12T03:30:34.279Z,0.83
2018-08-12T03:33:02.920Z,0.70
2018-08-12T03:35:31.731Z,0.60
2018-08-12T03:38:00.411Z,0.70
2018-08-12T03:40:29.075Z,0.70
2018-08-12T03:42:57.757Z,0.60
2018-08-12T03:45:26.432Z,0.70
2018-08-12T03:47:55.127Z,0.50
2018-08-12T03:50:23.789Z,0.53
2018-08-12T03:52:52.480Z,0.43
2018-08-12T03:55:21.195Z,0.40
2018-08-12T03:57:49.867Z,1.03
2018-08-12T04:00:19.325Z,0.40
2018-08-12T04:02:48.863Z,0.50
2018-08-12T04:05:18.228Z,0.83
2018-08-12T04:07:46.895Z,0.50
2018-08-12T04:10:15.561Z,0.70
2018-08-12T04:12:44.276Z,0.47
2018-08-12T04:15:13.120Z,0.50
2018-08-12T04:17:42.055Z,0.30
2018-08-12T04:20:11.715Z,0.47
2018-08-12T04:22:41.020Z,0.37
2018-08-12T04:25:09.699Z,0.53
2018-08-12T04:27:38.395Z,0.60
2018-08-12T04:30:08.694Z,0.40
2018-08-12T04:32:37.481Z,0.47
2018-08-12T04:35:06.705Z,0.40
2018-08-12T04:37:35.370Z,0.43
2018-08-12T04:40:05.097Z,0.50
2018-08-12T04:42:33.796Z,0.60
2018-08-12T04:45:02.480Z,0.50
2018-08-12T04:47:31.159Z,0.47
2018-08-12T04:49:59.793Z,0.70
2018-08-12T04:52:28.539Z,0.50
2018-08-12T04:54:57.221Z,0.70
2018-08-12T04:57:25.873Z,0.93
2018-08-12T04:59:54.538Z,0.80
2018-08-12T05:02:23.240Z,0.90
2018-08-12T05:04:52.048Z,1.20
2018-08-12T05:07:20.702Z,0.87
2018-08-12T05:09:49.340Z,0.80
2018-08-12T05:12:18.040Z,0.83
2018-08-12T05:14:46.740Z,1.07
2018-08-12T05:17:15.524Z,1.00
2018-08-12T05:19:44.200Z,1.00
2018-08-12T05:22:12.887Z,0.57
2018-08-12T05:24:41.580Z,0.60
2018-08-12T05:27:10.319Z,0.87
2018-08-12T05:29:39.024Z,0.70
2018-08-12T05:32:07.734Z,0.80
2018-08-12T05:34:36.396Z,0.77
2018-08-12T05:37:05.140Z,0.77
2018-08-12T05:39:33.808Z,0.57
2018-08-12T05:42:02.517Z,0.60
2018-08-12T05:44:31.164Z,0.80
2018-08-12T05:46:59.854Z,0.73
2018-08-12T05:49:28.500Z,0.80
2018-08-12T05:51:57.204Z,0.70
2018-08-12T05:54:25.892Z,0.53
2018-08-12T05:56:54.667Z,0.70
2018-08-12T05:59:23.351Z,0.53
2018-08-12T06:01:52.061Z,0.60
2018-08-12T06:04:20.755Z,0.57
2018-08-12T06:06:49.448Z,0.43
2018-08-12T06:09:18.150Z,0.53
2018-08-12T06:11:46.880Z,0.67
2018-08-12T06:14:15.608Z,0.87
2018-08-12T06:16:44.324Z,0.40
2018-08-12T06:19:13.031Z,0.70
2018-08-12T06:21:41.735Z,0.60
2018-08-12T06:24:10.408Z,0.70
2018-08-12T06:26:39.073Z,0.70
2018-08-12T06:29:07.759Z,0.93
2018-08-12T06:31:36.472Z,0.87
2018-08-12T06:34:05.199Z,0.70
2018-08-12T06:36:33.865Z,0.97
2018-08-12T06:39:02.535Z,0.77
2018-08-12T06:41:31.167Z,1.13
2018-08-12T06:44:00.457Z,0.97
2018-08-12T06:46:29.201Z,0.70
2018-08-12T06:48:58.492Z,0.70
2018-08-12T06:51:27.307Z,0.80
2018-08-12T06:53:56.007Z,0.73
2018-08-12T06:56:24.695Z,0.80
2018-08-12T06:58:53.376Z,1.20
2018-08-12T07:01:22.075Z,1.30
2018-08-12T07:03:50.804Z,1.10
2018-08-12T07:06:19.486Z,1.27
2018-08-12T07:08:48.184Z,1.33
2018-08-12T07:11:16.892Z,1.30
2018-08-12T07:13:45.623Z,1.07
2018-08-12T07:16:14.295Z,1.40
2018-08-12T07:18:43.067Z,1.20
2018-08-12T07:21:11.747Z,1.20
2018-08-12T07:23:40.415Z,1.10
2018-08-12T07:26:09.140Z,1.20
2018-08-12T07:28:37.846Z,1.50
2018-08-12T07:31:06.600Z,1.20
2018-08-12T07:33:35.273Z,1.00
2018-08-12T07:36:03.967Z,1.50
2018-08-12T07:38:32.667Z,1.20
2018-08-12T07:41:01.630Z,1.20
2018-08-12T07:43:30.309Z,1.20
2018-08-12T07:45:59.170Z,1.30
2018-08-12T07:48:27.901Z,1.23
2018-08-12T07:50:56.600Z,1.40
2018-08-12T07:53:25.291Z,1.23
2018-08-12T07:55:54.014Z,1.03
2018-08-12T07:58:22.784Z,0.90
2018-08-12T08:00:51.540Z,0.90
2018-08-12T08:03:20.215Z,0.50
2018-08-12T08:05:49.647Z,0.90
2018-08-12T08:08:18.320Z,0.70
2018-08-12T08:10:47.038Z,0.70
2018-08-12T08:13:15.781Z,0.60
2018-08-12T08:15:44.473Z,0.80
2018-08-12T08:18:13.123Z,0.63
2018-08-12T08:20:41.776Z,0.80
2018-08-12T08:23:10.504Z,0.90
2018-08-12T08:25:39.222Z,0.90
2018-08-12T08:28:07.933Z,0.60
2018-08-12T08:30:36.611Z,0.70
2018-08-12T08:33:05.372Z,0.70
2018-08-12T08:35:34.092Z,0.60
2018-08-12T08:38:02.926Z,0.70
2018-08-12T08:40:31.651Z,0.30
2018-08-12T08:43:01.238Z,0.60
2018-08-12T08:45:29.999Z,0.40
2018-08-12T08:47:58.707Z,0.30
2018-08-12T08:50:27.483Z,0.37
2018-08-12T08:52:56.161Z,0.20
2018-08-12T08:55:24.955Z,0.40
2018-08-12T08:57:53.687Z,0.40
2018-08-12T09:00:22.596Z,0.30
2018-08-12T09:02:52.639Z,0.40
2018-08-12T09:05:21.670Z,0.50
2018-08-12T09:07:50.951Z,0.50
2018-08-12T09:10:20.108Z,0.63
2018-08-12T09:12:48.863Z,0.80
2018-08-12T09:15:19.035Z,0.90
2018-08-12T09:17:48.235Z,1.30
2018-08-12T09:20:18.248Z,1.20
2018-08-12T09:22:46.990Z,1.40
2018-08-12T09:25:15.829Z,1.50
2018-08-12T09:27:44.497Z,1.53
2018-08-12T09:30:21.712Z,1.60
2018-08-12T09:32:50.615Z,1.57
2018-08-12T09:35:19.381Z,2.07
2018-08-12T09:37:48.143Z,1.50
2018-08-12T09:40:17.930Z,1.43
2018-08-12T09:42:47.548Z,1.03
2018-08-12T09:45:17.939Z,1.20
2018-08-12T09:47:46.734Z,0.50
2018-08-12T09:50:17.467Z,0.80
2018-08-12T09:52:46.772Z,1.00
2018-08-12T09:55:15.851Z,0.80
2018-08-12T09:57:44.527Z,1.00
2018-08-12T10:00:19.896Z,1.13
2018-08-12T10:02:48.740Z,1.20
2018-08-12T10:05:17.737Z,0.90
2018-08-12T10:07:46.681Z,1.30
2018-08-12T10:10:15.847Z,1.27
2018-08-12T10:12:44.991Z,1.00
2018-08-12T10:15:14.730Z,1.10
2018-08-12T10:17:45.083Z,1.50
2018-08-12T10:20:13.918Z,1.07
2018-08-12T10:22:42.669Z,1.43
2018-08-12T10:25:11.427Z,1.43
2018-08-12T10:27:40.120Z,1.20
2018-08-12T10:30:10.939Z,1.37
2018-08-12T10:32:39.857Z,1.30
2018-08-12T10:35:09.896Z,1.73
2018-08-12T10:37:38.724Z,1.73
2018-08-12T10:40:16.553Z,1.33
2018-08-12T10:42:46.029Z,1.37
2018-08-12T10:45:14.799Z,1.43
2018-08-12T10:47:43.993Z,1.57
2018-08-12T10:50:16.740Z,1.30
2018-08-12T10:52:46.180Z,1.63
2018-08-12T10:55:16.416Z,1.37
2018-08-12T10:57:51.964Z,1.17
2018-08-12T11:00:23.669Z,1.43
2018-08-12T11:02:53.696Z,1.23
2018-08-12T11:05:22.481Z,1.17
2018-08-12T11:07:53.427Z,1.37
2018-08-12T11:10:22.373Z,1.70
2018-08-12T11:12:51.166Z,1.23
2018-08-12T11:15:19.856Z,1.50
2018-08-12T11:17:48.504Z,1.57
2018-08-12T11:20:18.022Z,1.47
2018-08-12T11:22:46.696Z,1.43
2018-08-12T11:25:15.424Z,1.17
2018-08-12T11:27:44.146Z,1.23
2018-08-12T11:30:16.469Z,1.10
2018-08-12T11:32:45.698Z,1.10
2018-08-12T11:35:17.077Z,1.27
2018-08-12T11:37:46.181Z,1.30
2018-08-12T11:40:15.600Z,1.10
2018-08-12T11:42:44.425Z,1.10
2018-08-12T11:45:16.125Z,1.43
2018-08-12T11:47:45.489Z,1.40
2018-08-12T11:50:14.764Z,1.40
2018-08-12T11:52:44.289Z,1.50
2018-08-12T11:55:14.311Z,1.30
2018-08-12T11:57:43.063Z,1.20
2018-08-12T12:00:14.544Z,1.20
2018-08-12T12:02:43.858Z,1.33
2018-08-12T12:05:13.397Z,1.30
2018-08-12T12:07:42.235Z,1.43
2018-08-12T12:10:13.507Z,1.40
2018-08-12T12:12:43.187Z,1.43
2018-08-12T12:15:12.746Z,1.60
2018-08-12T12:17:41.733Z,1.30
2018-08-12T12:20:11.666Z,1.57
2018-08-12T12:22:41.257Z,1.23
2018-08-12T12:25:11.779Z,1.30
2018-08-12T12:27:40.637Z,1.30
2018-08-12T12:30:12.875Z,2.10
2018-08-12T12:32:41.779Z,1.80
2018-08-12T12:35:11.190Z,1.60
2018-08-12T12:37:40.121Z,1.60
2018-08-12T12:40:10.316Z,1.40
2018-08-12T12:42:39.070Z,1.93
2018-08-12T12:45:09.255Z,1.60
2018-08-12T12:47:38.904Z,1.67
2018-08-12T12:50:10.438Z,1.67
2018-08-12T12:52:39.303Z,1.70
2018-08-12T12:55:08.039Z,1.80
2018-08-12T12:57:36.745Z,1.90
2018-08-12T13:00:07.496Z,1.80
2018-08-12T13:02:36.190Z,1.90
2018-08-12T13:05:05.988Z,2.07
2018-08-12T13:07:34.641Z,2.07
2018-08-12T13:10:03.618Z,1.50
2018-08-12T13:12:32.491Z,1.80
2018-08-12T13:15:01.188Z,1.93
2018-08-12T13:17:29.900Z,1.90
2018-08-12T13:19:58.620Z,1.70
2018-08-12T13:22:27.303Z,1.70
2018-08-12T13:24:56.092Z,2.10
2018-08-12T13:27:24.815Z,1.97
2018-08-12T13:29:53.513Z,1.87
2018-08-12T13:32:22.212Z,2.27
2018-08-12T13:34:50.865Z,1.80
2018-08-12T13:37:19.503Z,1.63
2018-08-12T13:39:48.504Z,2.13
2018-08-12T13:42:17.869Z,2.27
2018-08-12T13:44:46.589Z,2.13
2018-08-12T13:47:15.299Z,1.87
2018-08-12T13:49:43.989Z,1.97
2018-08-12T13:52:12.685Z,2.27
2018-08-12T13:54:41.444Z,2.70
2018-08-12T13:57:10.153Z,2.40
2018-08-12T13:59:39.093Z,2.30
2018-08-12T14:02:07.743Z,2.73
2018-08-12T14:04:36.481Z,2.70
2018-08-12T14:07:05.295Z,2.53
2018-08-12T14:09:33.921Z,2.80
2018-08-12T14:12:02.659Z,2.60
2018-08-12T14:14:31.331Z,2.53
2018-08-12T14:17:00.025Z,2.83
2018-08-12T14:19:28.726Z,2.13
2018-08-12T14:21:57.425Z,2.23
2018-08-12T14:24:26.077Z,1.90
2018-08-12T14:26:54.728Z,2.40
2018-08-12T14:29:23.440Z,2.53
2018-08-12T14:31:52.211Z,2.60
2018-08-12T14:34:20.902Z,2.43
2018-08-12T14:36:49.562Z,2.40
2018-08-12T14:39:18.236Z,2.13
2018-08-12T14:41:46.918Z,2.20
2018-08-12T14:44:15.593Z,1.63
2018-08-12T14:46:44.290Z,1.60
2018-08-12T14:49:13.651Z,1.33
2018-08-12T14:51:42.368Z,1.57
2018-08-12T14:54:11.104Z,1.40
2018-08-12T14:56:39.836Z,1.33
2018-08-12T14:59:08.492Z,1.57
2018-08-12T15:01:37.137Z,1.30
2018-08-12T15:04:05.848Z,1.30
2018-08-12T15:06:35.147Z,1.20
2018-08-12T15:09:04.216Z,1.60
2018-08-12T15:11:33.110Z,1.43
2018-08-12T15:14:01.794Z,1.53
2018-08-12T15:16:30.450Z,1.30
2018-08-12T15:18:59.144Z,1.43
2018-08-12T15:21:27.832Z,2.10
2018-08-12T15:23:56.504Z,1.40
2018-08-12T15:26:26.940Z,1.53
2018-08-12T15:28:55.683Z,1.70
2018-08-12T15:31:24.391Z,1.60
2018-08-12T15:33:53.039Z,1.70
2018-08-12T15:36:21.804Z,1.57
2018-08-12T15:38:50.427Z,1.60
2018-08-12T15:41:19.085Z,1.77
2018-08-12T15:43:47.783Z,1.67
2018-08-12T15:46:16.459Z,1.70
2018-08-12T15:48:45.122Z,1.70
2018-08-12T15:51:13.926Z,1.77
2018-08-12T15:53:42.475Z,2.70
2018-08-12T15:56:11.180Z,1.60
2018-08-12T15:58:39.839Z,1.50
2018-08-12T16:01:08.544Z,1.33
2018-08-12T16:03:37.200Z,1.63
2018-08-12T16:06:05.987Z,1.67
2018-08-12T16:08:34.665Z,1.53
2018-08-12T16:11:03.334Z,1.53
2018-08-12T16:13:32.005Z,2.20
2018-08-12T16:16:00.792Z,1.20
2018-08-12T16:18:29.485Z,1.27
2018-08-12T16:20:58.195Z,1.60
2018-08-12T16:23:26.935Z,1.70
2018-08-12T16:25:55.601Z,1.93
2018-08-12T16:28:24.302Z,1.73
2018-08-12T16:30:53.039Z,2.03
2018-08-12T16:33:21.723Z,1.73
2018-08-12T16:35:50.487Z,2.20
2018-08-12T16:38:19.160Z,1.87
2018-08-12T16:40:48.085Z,2.23
2018-08-12T16:43:16.796Z,1.30
2018-08-12T16:45:45.482Z,1.80
2018-08-12T16:48:14.190Z,1.70
2018-08-12T16:50:42.841Z,1.90
2018-08-12T16:53:11.521Z,2.03
2018-08-12T16:55:40.210Z,2.17
2018-08-12T16:58:08.937Z,1.80
2018-08-12T17:00:37.621Z,1.90
2018-08-12T17:03:06.644Z,1.80
2018-08-12T17:05:35.349Z,1.70
2018-08-12T17:08:04.064Z,1.60
2018-08-12T17:10:32.813Z,2.07
2018-08-12T17:13:01.525Z,2.40
2018-08-12T17:15:30.503Z,2.00
2018-08-12T17:17:59.262Z,2.00
2018-08-12T17:20:27.965Z,2.10
2018-08-12T17:22:56.927Z,1.80
2018-08-12T17:25:25.583Z,1.70
2018-08-12T17:27:54.290Z,2.00
2018-08-12T17:30:22.952Z,1.80
2018-08-12T17:32:51.604Z,1.50
2018-08-12T17:35:20.292Z,2.00
2018-08-12T17:37:48.975Z,1.60
2018-08-12T17:40:17.925Z,1.80
2018-08-12T17:42:46.647Z,2.20
2018-08-12T17:45:15.461Z,1.80
2018-08-12T17:47:44.239Z,2.00
2018-08-12T17:50:14.331Z,2.27
2018-08-12T17:52:43.166Z,1.80
2018-08-12T17:55:11.820Z,1.87
2018-08-12T17:57:40.574Z,2.00
2018-08-12T18:00:12.357Z,2.17
2018-08-12T18:02:41.101Z,2.30
2018-08-12T18:05:10.029Z,2.10
2018-08-12T18:07:39.400Z,2.03
2018-08-12T18:10:08.336Z,1.90
2018-08-12T18:12:37.583Z,1.60
2018-08-12T18:15:07.692Z,2.10
2018-08-12T18:17:36.403Z,8.37
2018-08-12T18:20:05.691Z,2.20
2018-08-12T18:22:34.448Z,2.00
2018-08-12T18:25:03.487Z,1.37
2018-08-12T18:27:32.148Z,1.47
2018-08-12T18:30:01.693Z,1.40
2018-08-12T18:32:30.390Z,1.33
2018-08-12T18:34:59.353Z,1.40
2018-08-12T18:37:30.073Z,1.30
2018-08-12T18:39:58.749Z,1.20
2018-08-12T18:42:27.488Z,1.23
2018-08-12T18:44:56.220Z,2.47
2018-08-12T18:47:24.892Z,1.67
2018-08-12T18:49:53.561Z,2.53
2018-08-12T18:52:22.258Z,2.10
2018-08-12T18:54:50.931Z,1.80
2018-08-12T18:57:19.635Z,3.10
2018-08-12T18:59:48.312Z,6.37
2018-08-12T19:02:17.178Z,5.83
2018-08-12T19:04:45.888Z,4.07
2018-08-12T19:07:14.819Z,3.37
2018-08-12T19:09:44.523Z,2.10
2018-08-12T19:12:13.300Z,1.50
2018-08-12T19:14:42.061Z,1.50
2018-08-12T19:17:11.496Z,1.60
2018-08-12T19:19:40.164Z,1.90
2018-08-12T19:22:08.932Z,1.30
2018-08-12T19:24:37.644Z,1.40
2018-08-12T19:27:06.400Z,1.30
2018-08-12T19:29:35.128Z,1.10
2018-08-12T19:32:03.832Z,1.47
2018-08-12T19:34:32.538Z,1.33
2018-08-12T19:37:01.373Z,1.40
2018-08-12T19:39:30.112Z,1.40
2018-08-12T19:41:58.878Z,1.40
2018-08-12T19:44:27.609Z,1.60
2018-08-12T19:46:56.320Z,1.17
2018-08-12T19:49:25.049Z,1.20
2018-08-12T19:51:53.754Z,1.30
2018-08-12T19:54:22.472Z,1.00
2018-08-12T19:56:51.170Z,1.27
2018-08-12T19:59:19.877Z,1.30
2018-08-12T20:01:48.564Z,1.20
2018-08-12T20:04:17.287Z,1.03
2018-08-12T20:06:46.012Z,1.40
2018-08-12T20:09:14.713Z,1.10
2018-08-12T20:11:43.477Z,1.20
2018-08-12T20:14:12.159Z,1.03
2018-08-12T20:16:40.897Z,1.30
2018-08-12T20:19:09.601Z,1.10
2018-08-12T20:21:38.546Z,1.20
2018-08-12T20:24:07.294Z,1.10
2018-08-12T20:26:36.054Z,1.53
2018-08-12T20:29:04.841Z,1.30
2018-08-12T20:31:33.553Z,1.40
2018-08-12T20:34:02.251Z,1.00
2018-08-12T20:36:30.992Z,1.53
2018-08-12T20:38:59.719Z,1.27
2018-08-12T20:41:28.436Z,1.20
2018-08-12T20:43:57.137Z,1.13
2018-08-12T20:46:25.903Z,1.23
2018-08-12T20:48:54.612Z,0.87
2018-08-12T20:51:23.316Z,1.80
2018-08-12T20:53:53.886Z,1.30
2018-08-12T20:56:22.708Z,1.10
2018-08-12T20:58:51.475Z,0.90
2018-08-12T21:01:20.177Z,1.10
2018-08-12T21:03:48.896Z,0.97
2018-08-12T21:06:17.708Z,0.90
2018-08-12T21:08:46.400Z,1.20
2018-08-12T21:11:15.113Z,1.17
2018-08-12T21:13:43.812Z,0.90
2018-08-12T21:16:12.551Z,1.40
2018-08-12T21:18:41.233Z,1.30
2018-08-12T21:21:09.943Z,1.37
2018-08-12T21:23:38.666Z,1.47
2018-08-12T21:26:07.408Z,1.33
2018-08-12T21:28:36.142Z,1.37
2018-08-12T21:31:04.832Z,1.27
2018-08-12T21:33:33.508Z,1.53
2018-08-12T21:36:02.203Z,1.33
2018-08-12T21:38:30.937Z,1.30
2018-08-12T21:40:59.656Z,1.30
2018-08-12T21:43:28.343Z,1.13
2018-08-12T21:45:57.041Z,1.00
2018-08-12T21:48:25.720Z,1.10
2018-08-12T21:50:54.432Z,1.20
2018-08-12T21:53:23.199Z,1.50
2018-08-12T21:55:51.960Z,1.50
2018-08-12T21:58:20.632Z,1.33
2018-08-12T22:00:49.411Z,1.40
2018-08-12T22:03:18.199Z,1.73
2018-08-12T22:05:46.924Z,1.60
2018-08-12T22:08:15.642Z,1.60
2018-08-12T22:10:44.334Z,1.70
2018-08-12T22:13:13.082Z,1.63
2018-08-12T22:15:41.773Z,1.90
2018-08-12T22:18:10.968Z,1.63
2018-08-12T22:20:39.756Z,1.50
2018-08-12T22:23:08.468Z,1.40
2018-08-12T22:25:37.216Z,1.67
2018-08-12T22:28:06.200Z,1.80
2018-08-12T22:30:34.901Z,1.63
2018-08-12T22:33:03.942Z,1.60
2018-08-12T22:35:32.672Z,1.53
2018-08-12T22:38:01.393Z,1.60
2018-08-12T22:40:30.103Z,1.50
2018-08-12T22:42:58.888Z,1.40
2018-08-12T22:45:27.614Z,1.53
2018-08-12T22:47:56.295Z,1.83
2018-08-12T22:50:25.006Z,1.70
2018-08-12T22:52:53.739Z,1.30
2018-08-12T22:55:22.411Z,1.70
2018-08-12T22:57:51.125Z,1.37
2018-08-12T23:00:20.441Z,1.53
2018-08-12T23:02:49.543Z,1.30
2018-08-12T23:05:18.360Z,1.50
2018-08-12T23:07:47.139Z,1.50
2018-08-12T23:10:15.860Z,1.20
2018-08-12T23:12:44.533Z,1.40
2018-08-12T23:15:24.220Z,1.37
2018-08-12T23:17:53.016Z,1.60
2018-08-12T23:20:21.703Z,1.57
2018-08-12T23:22:50.416Z,1.60
2018-08-12T23:25:19.251Z,1.87
2018-08-12T23:27:47.983Z,2.00
2018-08-12T23:30:16.660Z,2.27
2018-08-12T23:32:45.399Z,2.63
2018-08-12T23:35:14.152Z,2.33
2018-08-12T23:37:42.898Z,2.50
2018-08-12T23:40:11.592Z,3.23
2018-08-12T23:42:40.348Z,2.67
2018-08-12T23:45:09.077Z,2.97
2018-08-12T23:47:37.795Z,2.60
2018-08-12T23:50:06.561Z,3.00
2018-08-12T23:52:35.281Z,2.43
2018-08-12T23:55:04.065Z,2.43
2018-08-12T23:57:32.876Z,2.20
